sensor_id;sensor_type;location;lat;lon;timestamp;pressure;altitude;pressure_sealevel;temperature;humidity
15817;BME280;8009;50.070;8.232;2023-06-22T00:46:39;100107.44;;;24.75;62.62
15817;BME280;8009;50.070;8.232;2023-06-22T00:49:08;100133.69;;;24.29;64.63
15817;BME280;8009;50.070;8.232;2023-06-22T00:51:38;100141.47;;;23.91;68.64
15817;BME280;8009;50.070;8.232;2023-06-22T00:54:13;100147.91;;;23.98;67.87
15817;BME280;8009;50.070;8.232;2023-06-22T00:56:42;100150.63;;;23.70;67.43
15817;BME280;8009;50.070;8.232;2023-06-22T00:59:11;100163.53;;;23.48;67.97
15817;BME280;8009;50.070;8.232;2023-06-22T01:01:45;100167.41;;;24.25;65.74
15817;BME280;8009;50.070;8.232;2023-06-22T01:04:14;100170.56;;;24.22;66.69
15817;BME280;8009;50.070;8.232;2023-06-22T01:09:21;100148.97;;;23.97;67.94
15817;BME280;8009;50.070;8.232;2023-06-22T01:11:54;100105.38;;;23.65;69.53
15817;BME280;8009;50.070;8.232;2023-06-22T01:19:55;100014.28;;;23.66;69.76
15817;BME280;8009;50.070;8.232;2023-06-22T01:22:30;100013.06;;;23.75;71.21
15817;BME280;8009;50.070;8.232;2023-06-22T01:25:07;100036.56;;;23.50;75.49
15817;BME280;8009;50.070;8.232;2023-06-22T01:27:47;100046.69;;;23.00;78.23
15817;BME280;8009;50.070;8.232;2023-06-22T01:30:22;100035.03;;;22.83;79.20
15817;BME280;8009;50.070;8.232;2023-06-22T01:32:52;100044.94;;;22.62;82.28
15817;BME280;8009;50.070;8.232;2023-06-22T01:35:24;100057.56;;;22.72;81.44
15817;BME280;8009;50.070;8.232;2023-06-22T01:37:53;100059.47;;;23.07;79.38
15817;BME280;8009;50.070;8.232;2023-06-22T01:40:23;100073.00;;;23.24;77.74
15817;BME280;8009;50.070;8.232;2023-06-22T01:42:53;100083.09;;;23.38;77.53
15817;BME280;8009;50.070;8.232;2023-06-22T01:45:24;100088.03;;;22.11;82.70
15817;BME280;8009;50.070;8.232;2023-06-22T01:47:55;100079.44;;;22.44;81.02
15817;BME280;8009;50.070;8.232;2023-06-22T01:50:24;100057.63;;;22.93;77.66
15817;BME280;8009;50.070;8.232;2023-06-22T01:52:52;100030.00;;;22.50;79.14
15817;BME280;8009;50.070;8.232;2023-06-22T01:55:21;100019.00;;;22.35;81.67
15817;BME280;8009;50.070;8.232;2023-06-22T01:57:49;100027.44;;;22.49;79.58
15817;BME280;8009;50.070;8.232;2023-06-22T02:00:21;100024.06;;;23.04;77.68
15817;BME280;8009;50.070;8.232;2023-06-22T02:02:58;100027.88;;;22.67;77.90
15817;BME280;8009;50.070;8.232;2023-06-22T02:05:33;100017.59;;;22.76;80.28
15817;BME280;8009;50.070;8.232;2023-06-22T02:18:25;100028.19;;;22.13;85.00
15817;BME280;8009;50.070;8.232;2023-06-22T02:26:04;100041.44;;;22.32;84.30
15817;BME280;8009;50.070;8.232;2023-06-22T02:33:48;100070.31;;;21.99;86.45
15817;BME280;8009;50.070;8.232;2023-06-22T02:49:08;99986.19;;;22.49;83.75
15817;BME280;8009;50.070;8.232;2023-06-22T02:56:46;99994.56;;;21.96;86.38
15817;BME280;8009;50.070;8.232;2023-06-22T02:59:16;99994.19;;;21.99;88.14
15817;BME280;8009;50.070;8.232;2023-06-22T03:01:49;99991.59;;;22.42;82.55
15817;BME280;8009;50.070;8.232;2023-06-22T03:04:22;99980.25;;;22.30;83.24
15817;BME280;8009;50.070;8.232;2023-06-22T03:06:51;99976.56;;;22.59;82.38
15817;BME280;8009;50.070;8.232;2023-06-22T03:09:21;99967.97;;;22.69;81.18
15817;BME280;8009;50.070;8.232;2023-06-22T03:11:57;99963.69;;;22.45;85.83
15817;BME280;8009;50.070;8.232;2023-06-22T03:14:32;99962.84;;;22.45;84.18
15817;BME280;8009;50.070;8.232;2023-06-22T03:17:01;99967.97;;;22.48;84.34
15817;BME280;8009;50.070;8.232;2023-06-22T03:19:34;99972.44;;;22.70;83.09
15817;BME280;8009;50.070;8.232;2023-06-22T03:22:04;99976.44;;;22.68;83.42
15817;BME280;8009;50.070;8.232;2023-06-22T03:24:45;99968.53;;;22.79;82.23
15817;BME280;8009;50.070;8.232;2023-06-22T03:27:26;99973.66;;;23.04;80.28
15817;BME280;8009;50.070;8.232;2023-06-22T03:29:57;99970.72;;;22.69;82.51
15817;BME280;8009;50.070;8.232;2023-06-22T03:32:25;99963.94;;;22.86;80.22
15817;BME280;8009;50.070;8.232;2023-06-22T03:34:56;99967.50;;;22.66;83.37
15817;BME280;8009;50.070;8.232;2023-06-22T03:37:26;99960.44;;;22.78;81.78
15817;BME280;8009;50.070;8.232;2023-06-22T03:39:57;99955.00;;;22.84;80.41
15817;BME280;8009;50.070;8.232;2023-06-22T03:42:26;99960.06;;;22.81;82.74
15817;BME280;8009;50.070;8.232;2023-06-22T03:44:55;99958.59;;;22.42;84.38
15817;BME280;8009;50.070;8.232;2023-06-22T03:47:23;99952.44;;;23.26;79.39
15817;BME280;8009;50.070;8.232;2023-06-22T03:49:59;99955.41;;;22.81;81.00
15817;BME280;8009;50.070;8.232;2023-06-22T03:52:28;99961.75;;;22.60;82.42
15817;BME280;8009;50.070;8.232;2023-06-22T03:54:57;99962.91;;;22.15;84.86
15817;BME280;8009;50.070;8.232;2023-06-22T03:57:26;99967.53;;;22.29;85.17
15817;BME280;8009;50.070;8.232;2023-06-22T03:59:58;99976.28;;;22.18;85.92
15817;BME280;8009;50.070;8.232;2023-06-22T04:02:28;99972.19;;;21.99;87.55
15817;BME280;8009;50.070;8.232;2023-06-22T04:04:59;99966.84;;;22.42;84.02
15817;BME280;8009;50.070;8.232;2023-06-22T04:07:29;99965.59;;;22.45;85.63
15817;BME280;8009;50.070;8.232;2023-06-22T04:10:00;99976.78;;;22.79;80.73
15817;BME280;8009;50.070;8.232;2023-06-22T04:12:28;99968.75;;;22.99;80.79
15817;BME280;8009;50.070;8.232;2023-06-22T04:14:59;99979.69;;;22.93;82.30
15817;BME280;8009;50.070;8.232;2023-06-22T04:17:29;99981.25;;;22.44;83.50
15817;BME280;8009;50.070;8.232;2023-06-22T04:20:02;99975.75;;;22.44;84.42
15817;BME280;8009;50.070;8.232;2023-06-22T04:22:37;99983.84;;;22.67;82.30
15817;BME280;8009;50.070;8.232;2023-06-22T04:25:06;99986.72;;;22.80;83.04
15817;BME280;8009;50.070;8.232;2023-06-22T04:27:35;99987.25;;;22.69;83.92
15817;BME280;8009;50.070;8.232;2023-06-22T04:30:08;99991.63;;;22.85;82.92
15817;BME280;8009;50.070;8.232;2023-06-22T04:32:43;99995.50;;;22.48;84.62
15817;BME280;8009;50.070;8.232;2023-06-22T04:35:25;99990.34;;;22.81;82.05
15817;BME280;8009;50.070;8.232;2023-06-22T04:37:58;99988.22;;;22.98;82.16
15817;BME280;8009;50.070;8.232;2023-06-22T04:40:29;99988.94;;;23.06;81.03
15817;BME280;8009;50.070;8.232;2023-06-22T04:42:58;99985.66;;;23.18;80.30
15817;BME280;8009;50.070;8.232;2023-06-22T04:45:28;99984.47;;;23.05;79.68
15817;BME280;8009;50.070;8.232;2023-06-22T04:47:57;99984.47;;;23.05;80.19
15817;BME280;8009;50.070;8.232;2023-06-22T04:50:28;99981.94;;;22.89;81.16
15817;BME280;8009;50.070;8.232;2023-06-22T04:52:56;99981.38;;;23.15;80.29
15817;BME280;8009;50.070;8.232;2023-06-22T04:55:25;99983.91;;;22.74;82.59
15817;BME280;8009;50.070;8.232;2023-06-22T04:57:53;99979.78;;;22.84;84.20
15817;BME280;8009;50.070;8.232;2023-06-22T05:00:23;99984.06;;;22.87;82.53
15817;BME280;8009;50.070;8.232;2023-06-22T05:02:53;99974.72;;;23.03;82.25
15817;BME280;8009;50.070;8.232;2023-06-22T05:05:25;99975.78;;;22.87;82.91
15817;BME280;8009;50.070;8.232;2023-06-22T05:10:32;99984.88;;;23.24;80.34
15817;BME280;8009;50.070;8.232;2023-06-22T05:20:46;99974.41;;;23.19;79.25
15817;BME280;8009;50.070;8.232;2023-06-22T05:23:17;99975.69;;;23.17;79.18
15817;BME280;8009;50.070;8.232;2023-06-22T05:25:49;99969.22;;;23.31;78.08
15817;BME280;8009;50.070;8.232;2023-06-22T05:28:20;99966.88;;;23.28;79.51
15817;BME280;8009;50.070;8.232;2023-06-22T05:30:48;99955.31;;;23.39;77.73
15817;BME280;8009;50.070;8.232;2023-06-22T05:33:17;99968.66;;;23.35;77.19
15817;BME280;8009;50.070;8.232;2023-06-22T05:35:46;99962.25;;;23.35;75.19
15817;BME280;8009;50.070;8.232;2023-06-22T05:38:15;99958.47;;;23.36;74.98
15817;BME280;8009;50.070;8.232;2023-06-22T05:40:44;99954.41;;;23.60;76.39
15817;BME280;8009;50.070;8.232;2023-06-22T05:43:15;99958.81;;;23.54;74.66
15817;BME280;8009;50.070;8.232;2023-06-22T05:45:45;99963.28;;;23.55;73.60
15817;BME280;8009;50.070;8.232;2023-06-22T05:48:18;99967.19;;;23.40;73.69
15817;BME280;8009;50.070;8.232;2023-06-22T05:50:47;99964.66;;;23.66;73.66
15817;BME280;8009;50.070;8.232;2023-06-22T05:53:15;99953.06;;;23.77;73.63
15817;BME280;8009;50.070;8.232;2023-06-22T05:55:44;99958.53;;;23.71;72.54
15817;BME280;8009;50.070;8.232;2023-06-22T05:58:17;99961.59;;;23.61;71.83
15817;BME280;8009;50.070;8.232;2023-06-22T06:00:51;99963.03;;;23.78;72.12
15817;BME280;8009;50.070;8.232;2023-06-22T06:03:21;99961.53;;;23.76;72.08
15817;BME280;8009;50.070;8.232;2023-06-22T06:05:49;99960.28;;;23.78;71.38
15817;BME280;8009;50.070;8.232;2023-06-22T06:10:54;99961.88;;;24.01;70.59
15817;BME280;8009;50.070;8.232;2023-06-22T06:13:25;99965.09;;;24.11;72.81
15817;BME280;8009;50.070;8.232;2023-06-22T06:15:54;99963.63;;;24.15;71.18
15817;BME280;8009;50.070;8.232;2023-06-22T06:18:23;99960.06;;;24.21;71.18
15817;BME280;8009;50.070;8.232;2023-06-22T06:21:03;99965.34;;;24.16;70.57
15817;BME280;8009;50.070;8.232;2023-06-22T06:23:32;99966.97;;;23.97;68.90
15817;BME280;8009;50.070;8.232;2023-06-22T06:28:42;99958.78;;;24.17;69.02
15817;BME280;8009;50.070;8.232;2023-06-22T06:31:10;99959.22;;;24.21;67.80
15817;BME280;8009;50.070;8.232;2023-06-22T06:33:42;99964.22;;;24.39;68.26
15817;BME280;8009;50.070;8.232;2023-06-22T06:36:11;99960.94;;;24.28;69.07
15817;BME280;8009;50.070;8.232;2023-06-22T06:38:41;99944.88;;;24.45;67.51
15817;BME280;8009;50.070;8.232;2023-06-22T06:41:12;99950.22;;;24.47;66.51
15817;BME280;8009;50.070;8.232;2023-06-22T06:43:43;99943.66;;;24.61;65.21
15817;BME280;8009;50.070;8.232;2023-06-22T06:46:12;99931.81;;;24.80;65.55
15817;BME280;8009;50.070;8.232;2023-06-22T06:48:40;99929.28;;;24.86;65.58
15817;BME280;8009;50.070;8.232;2023-06-22T06:51:08;99929.25;;;24.79;65.59
15817;BME280;8009;50.070;8.232;2023-06-22T06:53:37;99936.53;;;25.00;66.13
15817;BME280;8009;50.070;8.232;2023-06-22T06:56:06;99940.97;;;24.81;66.26
15817;BME280;8009;50.070;8.232;2023-06-22T06:58:35;99939.06;;;25.08;64.50
15817;BME280;8009;50.070;8.232;2023-06-22T07:01:07;99934.63;;;25.20;63.31
15817;BME280;8009;50.070;8.232;2023-06-22T07:03:35;99934.38;;;25.09;62.25
15817;BME280;8009;50.070;8.232;2023-06-22T07:06:04;99938.44;;;25.33;63.25
15817;BME280;8009;50.070;8.232;2023-06-22T07:08:32;99932.50;;;25.29;63.21
15817;BME280;8009;50.070;8.232;2023-06-22T07:11:02;99930.97;;;25.60;60.59
15817;BME280;8009;50.070;8.232;2023-06-22T07:13:32;99925.91;;;25.43;61.76
15817;BME280;8009;50.070;8.232;2023-06-22T07:16:01;99928.66;;;25.50;61.78
15817;BME280;8009;50.070;8.232;2023-06-22T07:21:55;99929.03;;;25.60;61.93
15817;BME280;8009;50.070;8.232;2023-06-22T07:24:25;99925.44;;;25.60;62.29
15817;BME280;8009;50.070;8.232;2023-06-22T07:26:58;99920.97;;;25.65;60.56
15817;BME280;8009;50.070;8.232;2023-06-22T07:29:27;99922.66;;;25.60;60.79
15817;BME280;8009;50.070;8.232;2023-06-22T07:32:00;99919.72;;;25.61;60.26
15817;BME280;8009;50.070;8.232;2023-06-22T07:34:31;99909.91;;;25.72;60.38
15817;BME280;8009;50.070;8.232;2023-06-22T07:37:05;99910.94;;;25.84;60.15
15817;BME280;8009;50.070;8.232;2023-06-22T07:42:49;99896.72;;;25.81;61.08
15817;BME280;8009;50.070;8.232;2023-06-22T07:45:18;99887.50;;;26.00;58.82
15817;BME280;8009;50.070;8.232;2023-06-22T07:47:50;99889.06;;;26.21;59.51
15817;BME280;8009;50.070;8.232;2023-06-22T07:50:21;99895.44;;;26.28;58.18
15817;BME280;8009;50.070;8.232;2023-06-22T07:52:54;99891.44;;;26.17;58.04
15817;BME280;8009;50.070;8.232;2023-06-22T07:55:23;99878.25;;;26.19;57.59
15817;BME280;8009;50.070;8.232;2023-06-22T07:57:51;99873.84;;;26.50;56.80
15817;BME280;8009;50.070;8.232;2023-06-22T08:00:20;99878.28;;;26.51;57.40
15817;BME280;8009;50.070;8.232;2023-06-22T08:02:50;99893.91;;;26.32;56.98
15817;BME280;8009;50.070;8.232;2023-06-22T08:05:20;99889.31;;;26.58;56.66
15817;BME280;8009;50.070;8.232;2023-06-22T08:07:49;99871.34;;;26.67;56.13
15817;BME280;8009;50.070;8.232;2023-06-22T08:10:22;99869.19;;;26.76;57.85
15817;BME280;8009;50.070;8.232;2023-06-22T08:12:51;99871.03;;;26.57;56.36
15817;BME280;8009;50.070;8.232;2023-06-22T08:15:20;99870.31;;;26.68;56.08
15817;BME280;8009;50.070;8.232;2023-06-22T08:17:49;99869.06;;;26.64;56.12
15817;BME280;8009;50.070;8.232;2023-06-22T08:20:18;99865.38;;;26.70;56.18
15817;BME280;8009;50.070;8.232;2023-06-22T08:22:46;99861.09;;;26.99;56.27
15817;BME280;8009;50.070;8.232;2023-06-22T08:25:14;99850.16;;;27.11;54.94
15817;BME280;8009;50.070;8.232;2023-06-22T08:27:47;99852.34;;;26.77;55.13
15817;BME280;8009;50.070;8.232;2023-06-22T08:30:16;99855.28;;;27.07;54.67
15817;BME280;8009;50.070;8.232;2023-06-22T08:32:45;99849.25;;;27.17;55.29
15817;BME280;8009;50.070;8.232;2023-06-22T08:35:14;99854.09;;;27.21;54.21
15817;BME280;8009;50.070;8.232;2023-06-22T08:37:42;99861.03;;;27.31;54.48
15817;BME280;8009;50.070;8.232;2023-06-22T08:40:17;99854.34;;;27.38;54.14
15817;BME280;8009;50.070;8.232;2023-06-22T08:42:48;99856.22;;;27.63;52.47
15817;BME280;8009;50.070;8.232;2023-06-22T08:45:19;99843.41;;;27.62;53.43
15817;BME280;8009;50.070;8.232;2023-06-22T08:47:52;99833.63;;;27.96;52.74
15817;BME280;8009;50.070;8.232;2023-06-22T08:50:21;99830.38;;;28.17;52.02
15817;BME280;8009;50.070;8.232;2023-06-22T08:52:49;99831.91;;;28.13;52.47
15817;BME280;8009;50.070;8.232;2023-06-22T08:55:18;99824.19;;;28.15;51.80
15817;BME280;8009;50.070;8.232;2023-06-22T08:57:59;99827.00;;;28.57;50.87
15817;BME280;8009;50.070;8.232;2023-06-22T09:00:30;99825.03;;;28.46;49.21
15817;BME280;8009;50.070;8.232;2023-06-22T09:03:02;99833.31;;;28.04;52.89
15817;BME280;8009;50.070;8.232;2023-06-22T09:05:45;99828.72;;;27.80;52.82
15817;BME280;8009;50.070;8.232;2023-06-22T09:08:16;99835.13;;;27.80;52.75
15817;BME280;8009;50.070;8.232;2023-06-22T09:10:45;99816.56;;;28.11;52.13
15817;BME280;8009;50.070;8.232;2023-06-22T09:21:49;99800.59;;;28.90;50.87
15817;BME280;8009;50.070;8.232;2023-06-22T09:24:18;99803.31;;;29.08;50.22
15817;BME280;8009;50.070;8.232;2023-06-22T09:26:47;99805.94;;;29.03;50.26
15817;BME280;8009;50.070;8.232;2023-06-22T09:29:15;99802.41;;;28.84;51.08
15817;BME280;8009;50.070;8.232;2023-06-22T09:31:44;99787.94;;;29.18;49.91
15817;BME280;8009;50.070;8.232;2023-06-22T09:34:12;99789.00;;;29.40;49.54
15817;BME280;8009;50.070;8.232;2023-06-22T09:36:41;99791.38;;;29.72;48.95
15817;BME280;8009;50.070;8.232;2023-06-22T09:39:12;99787.34;;;29.79;49.13
15817;BME280;8009;50.070;8.232;2023-06-22T09:41:40;99787.09;;;29.17;50.61
15817;BME280;8009;50.070;8.232;2023-06-22T09:44:09;99784.78;;;28.79;51.43
15817;BME280;8009;50.070;8.232;2023-06-22T09:46:40;99792.50;;;28.88;50.97
15817;BME280;8009;50.070;8.232;2023-06-22T09:49:19;99775.69;;;28.60;50.39
15817;BME280;8009;50.070;8.232;2023-06-22T09:51:48;99760.84;;;28.54;51.04
15817;BME280;8009;50.070;8.232;2023-06-22T09:54:20;99759.66;;;28.62;50.90
15817;BME280;8009;50.070;8.232;2023-06-22T09:56:49;99758.09;;;29.25;49.63
15817;BME280;8009;50.070;8.232;2023-06-22T09:59:17;99763.03;;;29.23;47.67
15817;BME280;8009;50.070;8.232;2023-06-22T10:01:46;99749.69;;;29.48;49.30
15817;BME280;8009;50.070;8.232;2023-06-22T10:04:30;99755.91;;;29.15;49.50
15817;BME280;8009;50.070;8.232;2023-06-22T10:06:59;99751.44;;;29.26;49.85
15817;BME280;8009;50.070;8.232;2023-06-22T10:09:39;99747.09;;;29.06;49.70
15817;BME280;8009;50.070;8.232;2023-06-22T10:12:08;99740.34;;;29.02;50.45
15817;BME280;8009;50.070;8.232;2023-06-22T10:14:37;99738.59;;;29.36;50.77
15817;BME280;8009;50.070;8.232;2023-06-22T10:17:08;99742.59;;;29.29;49.80
15817;BME280;8009;50.070;8.232;2023-06-22T10:19:44;99735.16;;;29.06;49.95
15817;BME280;8009;50.070;8.232;2023-06-22T10:22:25;99738.59;;;29.36;49.24
15817;BME280;8009;50.070;8.232;2023-06-22T10:25:01;99725.59;;;29.02;48.82
15817;BME280;8009;50.070;8.232;2023-06-22T10:27:29;99721.28;;;29.58;48.40
15817;BME280;8009;50.070;8.232;2023-06-22T10:29:58;99715.56;;;29.65;48.10
15817;BME280;8009;50.070;8.232;2023-06-22T10:32:28;99696.72;;;29.83;47.74
15817;BME280;8009;50.070;8.232;2023-06-22T10:35:28;99689.38;;;30.40;46.41
15817;BME280;8009;50.070;8.232;2023-06-22T10:38:03;99685.56;;;30.63;45.87
15817;BME280;8009;50.070;8.232;2023-06-22T10:40:36;99680.59;;;30.65;45.02
15817;BME280;8009;50.070;8.232;2023-06-22T10:43:05;99678.88;;;30.64;45.32
15817;BME280;8009;50.070;8.232;2023-06-22T10:45:38;99662.50;;;30.67;45.55
15817;BME280;8009;50.070;8.232;2023-06-22T10:48:07;99656.78;;;30.74;46.29
15817;BME280;8009;50.070;8.232;2023-06-22T10:50:35;99661.59;;;30.45;46.17
15817;BME280;8009;50.070;8.232;2023-06-22T10:53:05;99656.19;;;30.72;45.90
15817;BME280;8009;50.070;8.232;2023-06-22T10:55:36;99648.63;;;30.50;46.17
15817;BME280;8009;50.070;8.232;2023-06-22T10:58:18;99643.91;;;30.34;45.52
15817;BME280;8009;50.070;8.232;2023-06-22T11:00:46;99641.34;;;30.16;46.18
15817;BME280;8009;50.070;8.232;2023-06-22T11:03:15;99631.78;;;29.95;46.40
15817;BME280;8009;50.070;8.232;2023-06-22T11:05:46;99637.84;;;30.20;45.45
15817;BME280;8009;50.070;8.232;2023-06-22T11:08:16;99631.50;;;30.42;45.54
15817;BME280;8009;50.070;8.232;2023-06-22T11:10:47;99640.22;;;30.67;44.52
15817;BME280;8009;50.070;8.232;2023-06-22T11:13:29;99631.34;;;30.70;43.86
15817;BME280;8009;50.070;8.232;2023-06-22T11:15:58;99623.81;;;30.71;44.20
15817;BME280;8009;50.070;8.232;2023-06-22T11:18:26;99626.72;;;30.59;44.03
15817;BME280;8009;50.070;8.232;2023-06-22T11:20:59;99619.34;;;30.87;43.60
15817;BME280;8009;50.070;8.232;2023-06-22T11:23:28;99610.34;;;30.79;43.35
15817;BME280;8009;50.070;8.232;2023-06-22T11:26:02;99610.84;;;30.59;43.44
15817;BME280;8009;50.070;8.232;2023-06-22T11:28:30;99617.81;;;30.57;43.48
15817;BME280;8009;50.070;8.232;2023-06-22T11:31:00;99616.47;;;30.43;43.89
15817;BME280;8009;50.070;8.232;2023-06-22T11:33:30;99613.84;;;30.36;44.00
15817;BME280;8009;50.070;8.232;2023-06-22T11:36:03;99606.00;;;30.33;44.27
15817;BME280;8009;50.070;8.232;2023-06-22T11:38:47;99588.22;;;30.56;42.89
15817;BME280;8009;50.070;8.232;2023-06-22T11:41:18;99591.84;;;30.34;44.26
15817;BME280;8009;50.070;8.232;2023-06-22T11:43:48;99604.06;;;30.33;44.65
15817;BME280;8009;50.070;8.232;2023-06-22T11:46:48;99588.28;;;30.39;42.50
15817;BME280;8009;50.070;8.232;2023-06-22T11:49:18;99600.19;;;30.34;43.64
15817;BME280;8009;50.070;8.232;2023-06-22T11:51:46;99591.84;;;30.34;43.17
15817;BME280;8009;50.070;8.232;2023-06-22T11:54:14;99589.28;;;29.82;43.90
15817;BME280;8009;50.070;8.232;2023-06-22T11:56:45;99582.97;;;30.04;43.73
15817;BME280;8009;50.070;8.232;2023-06-22T11:59:14;99581.72;;;30.28;43.74
15817;BME280;8009;50.070;8.232;2023-06-22T12:01:42;99578.50;;;30.37;43.38
15817;BME280;8009;50.070;8.232;2023-06-22T12:04:11;99581.03;;;30.04;43.13
15817;BME280;8009;50.070;8.232;2023-06-22T12:06:39;99572.84;;;30.31;43.91
15817;BME280;8009;50.070;8.232;2023-06-22T12:09:09;99572.00;;;30.14;43.50
15817;BME280;8009;50.070;8.232;2023-06-22T12:11:40;99587.28;;;30.28;44.11
15817;BME280;8009;50.070;8.232;2023-06-22T12:14:15;99592.91;;;30.50;44.61
15817;BME280;8009;50.070;8.232;2023-06-22T12:16:44;99583.78;;;30.55;43.82
15817;BME280;8009;50.070;8.232;2023-06-22T12:19:12;99588.25;;;30.95;43.04
15817;BME280;8009;50.070;8.232;2023-06-22T12:21:40;99586.75;;;30.70;43.26
15817;BME280;8009;50.070;8.232;2023-06-22T12:24:11;99582.47;;;30.79;43.32
15817;BME280;8009;50.070;8.232;2023-06-22T12:26:39;99575.56;;;30.26;43.31
15817;BME280;8009;50.070;8.232;2023-06-22T12:29:08;99572.16;;;30.80;43.41
15817;BME280;8009;50.070;8.232;2023-06-22T12:31:38;99574.22;;;30.90;42.98
15817;BME280;8009;50.070;8.232;2023-06-22T12:34:07;99562.50;;;30.49;43.05
15817;BME280;8009;50.070;8.232;2023-06-22T12:36:35;99556.16;;;30.15;44.80
15817;BME280;8009;50.070;8.232;2023-06-22T12:39:04;99557.19;;;29.92;44.84
15817;BME280;8009;50.070;8.232;2023-06-22T12:41:32;99542.06;;;29.87;44.98
15817;BME280;8009;50.070;8.232;2023-06-22T12:44:01;99547.28;;;29.22;45.53
15817;BME280;8009;50.070;8.232;2023-06-22T12:46:30;99546.22;;;29.39;45.36
15817;BME280;8009;50.070;8.232;2023-06-22T12:52:15;99537.06;;;29.56;45.48
15817;BME280;8009;50.070;8.232;2023-06-22T12:54:44;99541.66;;;29.62;45.99
15817;BME280;8009;50.070;8.232;2023-06-22T12:57:12;99538.94;;;29.84;45.35
15817;BME280;8009;50.070;8.232;2023-06-22T12:59:40;99526.81;;;30.07;44.79
15817;BME280;8009;50.070;8.232;2023-06-22T13:04:42;99518.84;;;29.99;44.36
15817;BME280;8009;50.070;8.232;2023-06-22T13:12:23;99506.22;;;30.08;43.56
15817;BME280;8009;50.070;8.232;2023-06-22T13:14:54;99496.19;;;30.07;44.14
15817;BME280;8009;50.070;8.232;2023-06-22T13:17:22;99489.75;;;30.23;45.17
15817;BME280;8009;50.070;8.232;2023-06-22T13:19:50;99479.72;;;30.05;44.21
15817;BME280;8009;50.070;8.232;2023-06-22T13:22:30;99478.13;;;30.26;45.03
15817;BME280;8009;50.070;8.232;2023-06-22T13:25:00;99490.97;;;29.94;44.47
15817;BME280;8009;50.070;8.232;2023-06-22T13:27:33;99486.72;;;30.08;44.57
15817;BME280;8009;50.070;8.232;2023-06-22T13:30:14;99477.91;;;30.33;45.20
15817;BME280;8009;50.070;8.232;2023-06-22T13:32:42;99475.44;;;30.37;44.60
15817;BME280;8009;50.070;8.232;2023-06-22T13:35:11;99471.03;;;30.02;44.89
15817;BME280;8009;50.070;8.232;2023-06-22T13:37:40;99475.75;;;30.18;45.94
15817;BME280;8009;50.070;8.232;2023-06-22T13:40:18;99461.78;;;29.96;46.23
15817;BME280;8009;50.070;8.232;2023-06-22T13:49:00;99439.53;;;29.79;46.67
15817;BME280;8009;50.070;8.232;2023-06-22T13:54:32;99417.81;;;29.43;46.96
15817;BME280;8009;50.070;8.232;2023-06-22T13:57:40;99412.00;;;29.61;46.95
15817;BME280;8009;50.070;8.232;2023-06-22T14:03:36;99381.56;;;29.54;45.29
15817;BME280;8009;50.070;8.232;2023-06-22T14:12:13;99368.94;;;29.47;44.71
15817;BME280;8009;50.070;8.232;2023-06-22T14:17:18;99362.97;;;29.21;45.02
15817;BME280;8009;50.070;8.232;2023-06-22T14:19:51;99361.25;;;29.37;44.33
15817;BME280;8009;50.070;8.232;2023-06-22T14:22:37;99370.31;;;29.27;43.87
15817;BME280;8009;50.070;8.232;2023-06-22T14:25:06;99380.72;;;29.54;43.00
15817;BME280;8009;50.070;8.232;2023-06-22T14:27:46;99387.47;;;29.07;44.16
15817;BME280;8009;50.070;8.232;2023-06-22T14:30:14;99399.84;;;29.00;44.08
15817;BME280;8009;50.070;8.232;2023-06-22T14:32:43;99393.19;;;28.72;44.55
15817;BME280;8009;50.070;8.232;2023-06-22T14:35:12;99405.78;;;28.91;44.17
15817;BME280;8009;50.070;8.232;2023-06-22T14:37:40;99404.41;;;29.06;44.24
15817;BME280;8009;50.070;8.232;2023-06-22T14:40:10;99402.16;;;29.20;44.28
15817;BME280;8009;50.070;8.232;2023-06-22T14:42:41;99392.09;;;29.02;44.20
15817;BME280;8009;50.070;8.232;2023-06-22T14:45:10;99388.25;;;29.20;44.06
15817;BME280;8009;50.070;8.232;2023-06-22T14:47:38;99380.06;;;29.13;44.17
15817;BME280;8009;50.070;8.232;2023-06-22T14:50:08;99378.88;;;29.59;43.65
15817;BME280;8009;50.070;8.232;2023-06-22T14:52:36;99372.06;;;29.33;44.67
15817;BME280;8009;50.070;8.232;2023-06-22T14:55:06;99370.78;;;29.41;44.43
15817;BME280;8009;50.070;8.232;2023-06-22T14:57:37;99368.09;;;29.63;43.88
15817;BME280;8009;50.070;8.232;2023-06-22T15:00:23;99353.59;;;29.44;45.02
15817;BME280;8009;50.070;8.232;2023-06-22T15:03:05;99340.03;;;29.48;44.97
15817;BME280;8009;50.070;8.232;2023-06-22T15:05:46;99331.78;;;29.36;44.78
15817;BME280;8009;50.070;8.232;2023-06-22T15:08:15;99330.50;;;29.44;44.78
15817;BME280;8009;50.070;8.232;2023-06-22T15:15:57;99318.88;;;29.30;45.20
15817;BME280;8009;50.070;8.232;2023-06-22T15:39:09;99346.47;;;28.98;48.71
15817;BME280;8009;50.070;8.232;2023-06-22T15:41:39;99345.16;;;28.72;44.01
15817;BME280;8009;50.070;8.232;2023-06-22T15:44:07;99347.09;;;28.71;44.81
15817;BME280;8009;50.070;8.232;2023-06-22T15:46:36;99382.25;;;28.37;45.85
15817;BME280;8009;50.070;8.232;2023-06-22T15:49:04;99372.31;;;26.53;56.28
15817;BME280;8009;50.070;8.232;2023-06-22T15:51:33;99463.13;;;25.39;63.90
15817;BME280;8009;50.070;8.232;2023-06-22T15:54:01;99504.47;;;25.21;64.82
15817;BME280;8009;50.070;8.232;2023-06-22T15:56:32;99589.47;;;24.74;72.35
15817;BME280;8009;50.070;8.232;2023-06-22T15:59:01;99448.50;;;24.11;77.36
15817;BME280;8009;50.070;8.232;2023-06-22T16:01:29;99432.91;;;23.65;75.45
15817;BME280;8009;50.070;8.232;2023-06-22T16:03:57;99407.50;;;23.43;74.20
15817;BME280;8009;50.070;8.232;2023-06-22T16:06:26;99398.38;;;23.69;72.42
15817;BME280;8009;50.070;8.232;2023-06-22T16:08:54;99381.38;;;23.78;76.81
15817;BME280;8009;50.070;8.232;2023-06-22T16:11:22;99387.19;;;22.97;81.35
15817;BME280;8009;50.070;8.232;2023-06-22T16:13:54;99383.09;;;23.73;79.30
15817;BME280;8009;50.070;8.232;2023-06-22T16:16:23;99407.03;;;23.79;79.99
15817;BME280;8009;50.070;8.232;2023-06-22T16:18:55;99430.50;;;24.01;78.57
15817;BME280;8009;50.070;8.232;2023-06-22T16:21:23;99447.63;;;24.23;76.03
15817;BME280;8009;50.070;8.232;2023-06-22T16:24:16;99459.84;;;24.54;78.22
15817;BME280;8009;50.070;8.232;2023-06-22T16:26:45;99468.38;;;24.39;78.31
15817;BME280;8009;50.070;8.232;2023-06-22T16:29:14;99478.53;;;24.45;78.34
15817;BME280;8009;50.070;8.232;2023-06-22T16:31:42;99492.75;;;24.49;80.17